sensor_id;sensor_type;location;lat;lon;timestamp;pressure;altitude;pressure_sealevel;temperature;humidity
43312;BME280;30041;48.300;16.352;2022-07-10T00:01:50;100098.66;;;22.47;53.23
43312;BME280;30041;48.300;16.352;2022-07-10T00:04:16;100100.78;;;22.45;53.45
43312;BME280;30041;48.300;16.352;2022-07-10T00:06:42;100096.78;;;22.47;53.38
43312;BME280;30041;48.300;16.352;2022-07-10T00:09:07;100098.66;;;22.47;53.16
43312;BME280;30041;48.300;16.352;2022-07-10T00:11:33;100094.56;;;22.44;53.35
43312;BME280;30041;48.300;16.352;2022-07-10T00:13:59;100090.78;;;22.45;53.27
43312;BME280;30041;48.300;16.352;2022-07-10T00:16:25;100079.38;;;22.43;53.43
43312;BME280;30041;48.300;16.352;2022-07-10T00:18:51;100081.84;;;22.45;53.34
43312;BME280;30041;48.300;16.352;2022-07-10T00:21:16;100082.69;;;22.45;53.42
43312;BME280;30041;48.300;16.352;2022-07-10T00:23:43;100077.88;;;22.47;53.19
43312;BME280;30041;48.300;16.352;2022-07-10T00:26:08;100070.84;;;22.46;53.10
43312;BME280;30041;48.300;16.352;2022-07-10T00:28:34;100078.69;;;22.48;53.18
43312;BME280;30041;48.300;16.352;2022-07-10T00:31:00;100069.16;;;22.45;53.04
43312;BME280;30041;48.300;16.352;2022-07-10T00:33:26;100070.47;;;22.43;53.27
43312;BME280;30041;48.300;16.352;2022-07-10T00:35:51;100066.69;;;22.44;53.01
43312;BME280;30041;48.300;16.352;2022-07-10T00:38:19;100065.28;;;22.41;53.21
43312;BME280;30041;48.300;16.352;2022-07-10T00:40:45;100068.84;;;22.42;53.21
43312;BME280;30041;48.300;16.352;2022-07-10T00:43:11;100062.38;;;22.43;53.07
43312;BME280;30041;48.300;16.352;2022-07-10T00:45:36;100055.34;;;22.42;53.08
43312;BME280;30041;48.300;16.352;2022-07-10T00:48:02;100060.97;;;22.40;53.24
43312;BME280;30041;48.300;16.352;2022-07-10T00:50:28;100061.56;;;22.42;53.00
43312;BME280;30041;48.300;16.352;2022-07-10T00:52:55;100058.84;;;22.42;52.87
43312;BME280;30041;48.300;16.352;2022-07-10T00:55:21;100054.25;;;22.43;53.02
43312;BME280;30041;48.300;16.352;2022-07-10T00:57:48;100053.66;;;22.41;53.09
43312;BME280;30041;48.300;16.352;2022-07-10T01:00:14;100051.44;;;22.37;53.28
43312;BME280;30041;48.300;16.352;2022-07-10T01:02:42;100036.06;;;22.38;53.12
43312;BME280;30041;48.300;16.352;2022-07-10T01:05:09;100039.56;;;22.38;52.97
43312;BME280;30041;48.300;16.352;2022-07-10T01:07:35;100043.34;;;22.37;53.07
43312;BME280;30041;48.300;16.352;2022-07-10T01:10:00;100036.06;;;22.38;52.96
43312;BME280;30041;48.300;16.352;2022-07-10T01:12:27;100038.16;;;22.36;53.12
43312;BME280;30041;48.300;16.352;2022-07-10T01:14:54;100029.00;;;22.37;52.95
43312;BME280;30041;48.300;16.352;2022-07-10T01:17:20;100033.84;;;22.35;53.07
43312;BME280;30041;48.300;16.352;2022-07-10T01:19:46;100024.91;;;22.34;52.86
43312;BME280;30041;48.300;16.352;2022-07-10T01:22:12;100032.78;;;22.36;53.08
43312;BME280;30041;48.300;16.352;2022-07-10T01:24:38;100026.78;;;22.34;52.93
43312;BME280;30041;48.300;16.352;2022-07-10T01:27:03;100022.19;;;22.34;53.00
43312;BME280;30041;48.300;16.352;2022-07-10T01:29:29;100018.69;;;22.34;53.12
43312;BME280;30041;48.300;16.352;2022-07-10T01:31:55;100015.75;;;22.35;52.77
43312;BME280;30041;48.300;16.352;2022-07-10T01:34:21;100015.50;;;22.37;52.98
43312;BME280;30041;48.300;16.352;2022-07-10T01:36:47;100013.28;;;22.34;53.00
43312;BME280;30041;48.300;16.352;2022-07-10T01:39:13;100010.56;;;22.34;53.12
43312;BME280;30041;48.300;16.352;2022-07-10T01:41:39;100003.78;;;22.31;53.21
43312;BME280;30041;48.300;16.352;2022-07-10T01:44:04;100002.47;;;22.34;52.99
43312;BME280;30041;48.300;16.352;2022-07-10T01:46:30;100002.94;;;22.31;53.08
43312;BME280;30041;48.300;16.352;2022-07-10T01:48:56;99999.41;;;22.30;53.01
43312;BME280;30041;48.300;16.352;2022-07-10T01:51:22;99990.75;;;22.28;53.10
43312;BME280;30041;48.300;16.352;2022-07-10T01:53:48;99988.88;;;22.29;52.81
43312;BME280;30041;48.300;16.352;2022-07-10T01:56:15;99978.28;;;22.27;52.97
43312;BME280;30041;48.300;16.352;2022-07-10T01:58:41;99981.81;;;22.28;53.02
43312;BME280;30041;48.300;16.352;2022-07-10T02:01:08;99978.28;;;22.27;52.88
43312;BME280;30041;48.300;16.352;2022-07-10T02:03:35;99981.56;;;22.29;52.94
43312;BME280;30041;48.300;16.352;2022-07-10T02:06:01;99979.47;;;22.31;52.84
43312;BME280;30041;48.300;16.352;2022-07-10T02:08:26;99976.78;;;22.31;52.85
43312;BME280;30041;48.300;16.352;2022-07-10T02:10:52;99976.78;;;22.31;52.79
43312;BME280;30041;48.300;16.352;2022-07-10T02:13:17;99982.16;;;22.31;52.70
43312;BME280;30041;48.300;16.352;2022-07-10T02:15:46;99983.78;;;22.32;52.95
43312;BME280;30041;48.300;16.352;2022-07-10T02:18:14;99974.28;;;22.30;52.94
43312;BME280;30041;48.300;16.352;2022-07-10T02:20:40;99976.19;;;22.29;52.86
43312;BME280;30041;48.300;16.352;2022-07-10T02:23:05;99977.81;;;22.30;52.64
43312;BME280;30041;48.300;16.352;2022-07-10T02:25:31;99970.78;;;22.29;52.97
43312;BME280;30041;48.300;16.352;2022-07-10T02:27:57;99976.19;;;22.29;52.90
43312;BME280;30041;48.300;16.352;2022-07-10T02:30:22;99979.94;;;22.28;52.89
43312;BME280;30041;48.300;16.352;2022-07-10T02:32:48;99988.06;;;22.28;52.87
43312;BME280;30041;48.300;16.352;2022-07-10T02:35:14;99979.94;;;22.28;52.75
43312;BME280;30041;48.300;16.352;2022-07-10T02:37:39;99981.81;;;22.28;52.72
43312;BME280;30041;48.300;16.352;2022-07-10T02:40:05;99977.47;;;22.27;52.81
43312;BME280;30041;48.300;16.352;2022-07-10T02:42:31;99981.81;;;22.28;52.48
43312;BME280;30041;48.300;16.352;2022-07-10T02:44:57;99978.50;;;22.26;52.63
43312;BME280;30041;48.300;16.352;2022-07-10T02:47:22;99983.91;;;22.26;52.67
43312;BME280;30041;48.300;16.352;2022-07-10T02:49:48;99984.97;;;22.25;52.73
43312;BME280;30041;48.300;16.352;2022-07-10T02:52:14;99973.13;;;22.26;52.45
43312;BME280;30041;48.300;16.352;2022-07-10T02:54:39;99969.81;;;22.24;52.46
43312;BME280;30041;48.300;16.352;2022-07-10T02:57:05;99977.91;;;22.24;52.41
43312;BME280;30041;48.300;16.352;2022-07-10T02:59:31;99970.66;;;22.24;52.55
43312;BME280;30041;48.300;16.352;2022-07-10T03:01:56;99967.13;;;22.24;52.49
43312;BME280;30041;48.300;16.352;2022-07-10T03:04:22;99971.47;;;22.25;52.31
43312;BME280;30041;48.300;16.352;2022-07-10T03:06:48;99973.13;;;22.26;52.26
43312;BME280;30041;48.300;16.352;2022-07-10T03:09:13;99972.06;;;22.27;51.97
43312;BME280;30041;48.300;16.352;2022-07-10T03:11:39;99971.00;;;22.28;52.26
43312;BME280;30041;48.300;16.352;2022-07-10T03:14:05;99972.88;;;22.27;52.25
43312;BME280;30041;48.300;16.352;2022-07-10T03:16:30;99972.06;;;22.27;52.05
43312;BME280;30041;48.300;16.352;2022-07-10T03:18:56;99976.66;;;22.26;52.09
43312;BME280;30041;48.300;16.352;2022-07-10T03:21:21;99969.38;;;22.27;52.06
43312;BME280;30041;48.300;16.352;2022-07-10T03:23:47;99979.34;;;22.26;52.07
43312;BME280;30041;48.300;16.352;2022-07-10T03:26:12;99972.88;;;22.27;51.90
43312;BME280;30041;48.300;16.352;2022-07-10T03:28:38;99978.28;;;22.27;51.90
43312;BME280;30041;48.300;16.352;2022-07-10T03:31:04;99978.06;;;22.29;51.90
43312;BME280;30041;48.300;16.352;2022-07-10T03:33:30;99986.97;;;22.29;51.98
43312;BME280;30041;48.300;16.352;2022-07-10T03:35:55;99990.50;;;22.30;51.85
43312;BME280;30041;48.300;16.352;2022-07-10T03:38:21;99984.97;;;22.25;51.96
43312;BME280;30041;48.300;16.352;2022-07-10T03:40:47;99979.34;;;22.26;51.98
43312;BME280;30041;48.300;16.352;2022-07-10T03:43:12;99983.91;;;22.26;51.87
43312;BME280;30041;48.300;16.352;2022-07-10T03:45:38;99987.69;;;22.25;51.78
43312;BME280;30041;48.300;16.352;2022-07-10T03:48:04;99986.88;;;22.24;51.87
43312;BME280;30041;48.300;16.352;2022-07-10T03:50:30;99976.88;;;22.25;51.95
43312;BME280;30041;48.300;16.352;2022-07-10T03:52:55;99972.06;;;22.27;52.03
43312;BME280;30041;48.300;16.352;2022-07-10T03:55:24;99973.97;;;22.26;51.81
43312;BME280;30041;48.300;16.352;2022-07-10T03:57:50;99980.63;;;22.24;51.94
43312;BME280;30041;48.300;16.352;2022-07-10T04:00:15;99984.97;;;22.25;52.12
43312;BME280;30041;48.300;16.352;2022-07-10T04:02:41;99988.72;;;22.24;52.20
43312;BME280;30041;48.300;16.352;2022-07-10T04:05:08;99993.09;;;22.25;51.92
43312;BME280;30041;48.300;16.352;2022-07-10T04:07:34;99992.50;;;22.23;51.93
43312;BME280;30041;48.300;16.352;2022-07-10T04:10:02;99991.69;;;22.22;51.93
43312;BME280;30041;48.300;16.352;2022-07-10T04:12:27;99989.78;;;22.23;51.87
43312;BME280;30041;48.300;16.352;2022-07-10T04:14:53;99986.47;;;22.21;51.96
43312;BME280;30041;48.300;16.352;2022-07-10T04:17:19;99988.16;;;22.22;51.90
43312;BME280;30041;48.300;16.352;2022-07-10T04:19:44;99981.28;;;22.19;51.97
43312;BME280;30041;48.300;16.352;2022-07-10T04:22:10;99991.88;;;22.21;51.89
43312;BME280;30041;48.300;16.352;2022-07-10T04:24:36;99992.09;;;22.19;51.97
43312;BME280;30041;48.300;16.352;2022-07-10T04:27:02;99988.84;;;22.17;52.12
43312;BME280;30041;48.300;16.352;2022-07-10T04:29:27;99980.25;;;22.20;51.95
43312;BME280;30041;48.300;16.352;2022-07-10T04:31:56;99985.88;;;22.18;51.81
43312;BME280;30041;48.300;16.352;2022-07-10T04:34:21;99982.38;;;22.18;52.06
43312;BME280;30041;48.300;16.352;2022-07-10T04:36:50;99987.53;;;22.20;52.15
43312;BME280;30041;48.300;16.352;2022-07-10T04:39:15;99987.75;;;22.18;52.05
43312;BME280;30041;48.300;16.352;2022-07-10T04:41:41;99984.47;;;22.16;52.09
43312;BME280;30041;48.300;16.352;2022-07-10T04:44:07;99982.84;;;22.15;52.27
43312;BME280;30041;48.300;16.352;2022-07-10T04:46:32;99980.38;;;22.13;51.83
43312;BME280;30041;48.300;16.352;2022-07-10T04:48:58;99982.84;;;22.15;52.22
43312;BME280;30041;48.300;16.352;2022-07-10T04:51:23;99974.75;;;22.15;52.13
43312;BME280;30041;48.300;16.352;2022-07-10T04:53:49;99986.81;;;22.12;52.35
43312;BME280;30041;48.300;16.352;2022-07-10T04:56:15;99977.09;;;22.11;52.23
43312;BME280;30041;48.300;16.352;2022-07-10T04:58:41;99973.56;;;22.11;52.08
43312;BME280;30041;48.300;16.352;2022-07-10T05:01:07;99972.38;;;22.18;52.03
43312;BME280;30041;48.300;16.352;2022-07-10T05:03:35;99977.69;;;22.37;51.37
43312;BME280;30041;48.300;16.352;2022-07-10T05:06:01;99970.53;;;22.43;51.38
43312;BME280;30041;48.300;16.352;2022-07-10T05:08:27;99971.34;;;22.43;51.32
43312;BME280;30041;48.300;16.352;2022-07-10T05:10:52;99975.72;;;22.44;51.15
43312;BME280;30041;48.300;16.352;2022-07-10T05:13:18;99977.22;;;22.52;51.14
43312;BME280;30041;48.300;16.352;2022-07-10T05:15:54;99971.22;;;22.50;51.31
43312;BME280;30041;48.300;16.352;2022-07-10T05:18:20;99968.53;;;22.50;51.07
43312;BME280;30041;48.300;16.352;2022-07-10T05:20:45;99982.53;;;22.47;51.27
43312;BME280;30041;48.300;16.352;2022-07-10T05:23:11;99976.41;;;22.51;51.19
43312;BME280;30041;48.300;16.352;2022-07-10T05:25:37;99974.75;;;22.50;51.33
43312;BME280;30041;48.300;16.352;2022-07-10T05:28:06;99981.00;;;22.51;51.35
43312;BME280;30041;48.300;16.352;2022-07-10T05:30:32;99978.03;;;22.52;51.31
43312;BME280;30041;48.300;16.352;2022-07-10T05:32:58;99984.50;;;22.51;51.31
43312;BME280;30041;48.300;16.352;2022-07-10T05:35:23;99982.63;;;22.40;50.79
43312;BME280;30041;48.300;16.352;2022-07-10T05:37:49;99985.47;;;22.33;51.31
43312;BME280;30041;48.300;16.352;2022-07-10T05:40:15;99990.25;;;22.43;51.20
43312;BME280;30041;48.300;16.352;2022-07-10T05:42:40;99986.41;;;22.51;50.85
43312;BME280;30041;48.300;16.352;2022-07-10T05:45:07;99991.53;;;22.52;50.83
43312;BME280;30041;48.300;16.352;2022-07-10T05:47:33;99986.16;;;22.52;50.79
43312;BME280;30041;48.300;16.352;2022-07-10T05:49:59;99992.72;;;22.56;50.92
43312;BME280;30041;48.300;16.352;2022-07-10T05:52:25;99995.41;;;22.56;50.88
43312;BME280;30041;48.300;16.352;2022-07-10T05:54:50;99995.09;;;22.53;51.09
43312;BME280;30041;48.300;16.352;2022-07-10T05:57:16;99991.31;;;22.54;51.16
43312;BME280;30041;48.300;16.352;2022-07-10T05:59:42;99996.25;;;22.57;50.78
43312;BME280;30041;48.300;16.352;2022-07-10T06:02:08;99998.72;;;22.58;50.82
43312;BME280;30041;48.300;16.352;2022-07-10T06:04:33;99997.41;;;22.61;50.84
43312;BME280;30041;48.300;16.352;2022-07-10T06:06:59;99998.72;;;22.58;51.00
43312;BME280;30041;48.300;16.352;2022-07-10T06:09:25;99992.00;;;22.61;50.79
43312;BME280;30041;48.300;16.352;2022-07-10T06:11:51;99999.53;;;22.59;50.79
43312;BME280;30041;48.300;16.352;2022-07-10T06:14:16;99994.13;;;22.59;50.86
43312;BME280;30041;48.300;16.352;2022-07-10T06:16:42;99991.69;;;22.57;51.00
43312;BME280;30041;48.300;16.352;2022-07-10T06:19:08;99998.72;;;22.58;51.00
43312;BME280;30041;48.300;16.352;2022-07-10T06:21:33;99991.78;;;22.63;50.95
43312;BME280;30041;48.300;16.352;2022-07-10T06:23:59;99994.47;;;22.63;50.74
43312;BME280;30041;48.300;16.352;2022-07-10T06:26:24;99997.41;;;22.61;50.91
43312;BME280;30041;48.300;16.352;2022-07-10T06:28:51;99995.53;;;22.62;50.61
43312;BME280;30041;48.300;16.352;2022-07-10T06:31:16;99991.19;;;22.61;50.88
43312;BME280;30041;48.300;16.352;2022-07-10T06:33:42;99993.66;;;22.62;50.89
43312;BME280;30041;48.300;16.352;2022-07-10T06:36:07;99990.38;;;22.60;50.84
43312;BME280;30041;48.300;16.352;2022-07-10T06:38:33;99995.28;;;22.63;50.70
43312;BME280;30041;48.300;16.352;2022-07-10T06:40:59;99987.41;;;22.62;50.84
43312;BME280;30041;48.300;16.352;2022-07-10T06:43:25;99982.03;;;22.62;50.77
43312;BME280;30041;48.300;16.352;2022-07-10T06:45:51;99985.78;;;22.61;50.51
43312;BME280;30041;48.300;16.352;2022-07-10T06:48:17;99987.78;;;22.65;50.56
43312;BME280;30041;48.300;16.352;2022-07-10T06:50:43;99991.56;;;22.64;50.43
43312;BME280;30041;48.300;16.352;2022-07-10T06:53:08;99998.81;;;22.64;50.54
43312;BME280;30041;48.300;16.352;2022-07-10T06:55:34;100001.53;;;22.64;50.60
43312;BME280;30041;48.300;16.352;2022-07-10T06:58:00;100004.47;;;22.62;50.62
43312;BME280;30041;48.300;16.352;2022-07-10T07:00:29;99999.88;;;22.63;50.76
43312;BME280;30041;48.300;16.352;2022-07-10T07:02:55;100002.59;;;22.63;50.48
43312;BME280;30041;48.300;16.352;2022-07-10T07:05:21;100006.09;;;22.63;50.56
43312;BME280;30041;48.300;16.352;2022-07-10T07:07:46;99997.19;;;22.63;50.65
43312;BME280;30041;48.300;16.352;2022-07-10T07:10:12;100008.09;;;22.68;50.67
43312;BME280;30041;48.300;16.352;2022-07-10T07:12:38;100007.19;;;22.62;50.46
43312;BME280;30041;48.300;16.352;2022-07-10T07:15:04;100000.25;;;22.66;50.51
43312;BME280;30041;48.300;16.352;2022-07-10T07:17:30;100004.81;;;22.66;50.56
43312;BME280;30041;48.300;16.352;2022-07-10T07:19:56;100006.22;;;22.68;50.51
43312;BME280;30041;48.300;16.352;2022-07-10T07:22:24;100014.56;;;22.67;50.22
43312;BME280;30041;48.300;16.352;2022-07-10T07:24:50;100014.31;;;22.68;50.49
43312;BME280;30041;48.300;16.352;2022-07-10T07:27:16;100004.56;;;22.67;50.44
43312;BME280;30041;48.300;16.352;2022-07-10T07:29:41;100017.00;;;22.68;50.29
43312;BME280;30041;48.300;16.352;2022-07-10T07:32:07;100020.56;;;22.69;50.40
43312;BME280;30041;48.300;16.352;2022-07-10T07:34:33;100008.09;;;22.68;50.78
43312;BME280;30041;48.300;16.352;2022-07-10T07:36:58;100011.06;;;22.66;50.60
43312;BME280;30041;48.300;16.352;2022-07-10T07:39:24;100013.75;;;22.66;50.39
43312;BME280;30041;48.300;16.352;2022-07-10T07:41:50;100023.50;;;22.67;50.45
43312;BME280;30041;48.300;16.352;2022-07-10T07:44:15;100024.66;;;22.71;50.41
43312;BME280;30041;48.300;16.352;2022-07-10T07:46:41;100030.31;;;22.70;50.49
43312;BME280;30041;48.300;16.352;2022-07-10T07:49:07;100021.75;;;22.73;50.48
43312;BME280;30041;48.300;16.352;2022-07-10T07:51:32;100017.25;;;22.78;50.50
43312;BME280;30041;48.300;16.352;2022-07-10T07:53:58;100034.06;;;22.80;50.67
43312;BME280;30041;48.300;16.352;2022-07-10T07:56:24;100030.75;;;22.78;50.87
43312;BME280;30041;48.300;16.352;2022-07-10T07:58:49;100030.19;;;22.65;50.98
43312;BME280;30041;48.300;16.352;2022-07-10T08:01:15;100025.84;;;22.64;50.71
43312;BME280;30041;48.300;16.352;2022-07-10T08:03:41;100028.53;;;22.64;50.87
43312;BME280;30041;48.300;16.352;2022-07-10T08:06:06;100029.59;;;22.63;50.85
43312;BME280;30041;48.300;16.352;2022-07-10T08:08:32;100037.47;;;22.52;51.17
43312;BME280;30041;48.300;16.352;2022-07-10T08:10:58;100032.66;;;22.54;50.95
43312;BME280;30041;48.300;16.352;2022-07-10T08:13:26;100040.03;;;22.59;50.95
43312;BME280;30041;48.300;16.352;2022-07-10T08:15:51;100037.94;;;22.61;50.70
43312;BME280;30041;48.300;16.352;2022-07-10T08:18:17;100050.63;;;22.61;50.70
43312;BME280;30041;48.300;16.352;2022-07-10T08:20:43;100054.97;;;22.62;50.93
43312;BME280;30041;48.300;16.352;2022-07-10T08:23:08;100055.66;;;22.57;50.43
43312;BME280;30041;48.300;16.352;2022-07-10T08:25:34;100055.44;;;22.58;49.82
43312;BME280;30041;48.300;16.352;2022-07-10T08:28:02;100061.91;;;22.57;49.84
43312;BME280;30041;48.300;16.352;2022-07-10T08:30:29;100057.56;;;22.56;50.34
43312;BME280;30041;48.300;16.352;2022-07-10T08:32:54;100056.50;;;22.57;50.01
43312;BME280;30041;48.300;16.352;2022-07-10T08:35:20;100060.47;;;22.55;50.13
43312;BME280;30041;48.300;16.352;2022-07-10T08:37:46;100051.94;;;22.58;50.30
43312;BME280;30041;48.300;16.352;2022-07-10T08:40:13;100049.44;;;22.56;50.02
43312;BME280;30041;48.300;16.352;2022-07-10T08:42:40;100057.78;;;22.55;49.79
43312;BME280;30041;48.300;16.352;2022-07-10T08:45:06;100060.97;;;22.52;49.89
43312;BME280;30041;48.300;16.352;2022-07-10T08:47:35;100056.97;;;22.54;50.34
43312;BME280;30041;48.300;16.352;2022-07-10T08:50:01;100057.06;;;22.48;49.82
43312;BME280;30041;48.300;16.352;2022-07-10T08:55:25;100054.25;;;22.43;50.29
43312;BME280;30041;48.300;16.352;2022-07-10T08:57:54;100049.78;;;22.36;50.34
43312;BME280;30041;48.300;16.352;2022-07-10T09:00:23;100049.69;;;22.43;50.23
43312;BME280;30041;48.300;16.352;2022-07-10T09:02:49;100043.47;;;22.43;50.41
43312;BME280;30041;48.300;16.352;2022-07-10T09:05:15;100044.75;;;22.40;50.10
43312;BME280;30041;48.300;16.352;2022-07-10T09:07:40;100036.06;;;22.38;50.17
43312;BME280;30041;48.300;16.352;2022-07-10T09:10:10;100042.97;;;22.34;50.39
43312;BME280;30041;48.300;16.352;2022-07-10T09:13:02;100030.88;;;22.36;49.93
43312;BME280;30041;48.300;16.352;2022-07-10T09:15:30;100026.88;;;22.39;50.33
43312;BME280;30041;48.300;16.352;2022-07-10T09:18:00;100030.44;;;22.40;50.35
43312;BME280;30041;48.300;16.352;2022-07-10T09:20:36;100017.25;;;22.55;50.33
43312;BME280;30041;48.300;16.352;2022-07-10T09:25:14;100019.03;;;22.61;50.57
43312;BME280;30041;48.300;16.352;2022-07-10T09:27:51;100019.03;;;22.73;50.41
43312;BME280;30041;48.300;16.352;2022-07-10T09:30:34;100021.97;;;22.71;50.57
43312;BME280;30041;48.300;16.352;2022-07-10T09:33:25;100024.91;;;22.70;50.30
43312;BME280;30041;48.300;16.352;2022-07-10T09:38:52;100027.38;;;22.71;50.29
43312;BME280;30041;48.300;16.352;2022-07-10T09:41:25;100014.09;;;22.70;50.00
43312;BME280;30041;48.300;16.352;2022-07-10T09:43:53;100010.44;;;22.76;49.23
43312;BME280;30041;48.300;16.352;2022-07-10T09:46:21;100002.94;;;22.78;49.89
43312;BME280;30041;48.300;16.352;2022-07-10T09:48:47;100003.63;;;22.85;50.02
43312;BME280;30041;48.300;16.352;2022-07-10T09:51:13;100006.91;;;22.87;49.69
43312;BME280;30041;48.300;16.352;2022-07-10T09:53:43;100011.81;;;22.90;49.60
43312;BME280;30041;48.300;16.352;2022-07-10T09:56:11;100015.09;;;22.92;49.70
43312;BME280;30041;48.300;16.352;2022-07-10T09:58:37;100009.56;;;22.99;49.83
43312;BME280;30041;48.300;16.352;2022-07-10T10:01:04;100004.88;;;22.94;49.60
43312;BME280;30041;48.300;16.352;2022-07-10T10:03:36;100008.75;;;22.98;49.58
43312;BME280;30041;48.300;16.352;2022-07-10T10:06:11;99999.47;;;23.06;49.66
43312;BME280;30041;48.300;16.352;2022-07-10T10:08:57;99999.97;;;23.03;49.75
43312;BME280;30041;48.300;16.352;2022-07-10T10:11:26;99991.03;;;23.03;49.81
43312;BME280;30041;48.300;16.352;2022-07-10T10:13:53;99986.16;;;23.16;49.26
43312;BME280;30041;48.300;16.352;2022-07-10T10:16:22;99980.28;;;23.19;49.30
43312;BME280;30041;48.300;16.352;2022-07-10T10:18:50;99985.94;;;23.18;49.00
43312;BME280;30041;48.300;16.352;2022-07-10T10:21:17;99981.56;;;23.17;49.38
43312;BME280;30041;48.300;16.352;2022-07-10T10:23:43;99981.34;;;23.18;49.28
43312;BME280;30041;48.300;16.352;2022-07-10T10:26:09;99979.69;;;23.17;49.04
43312;BME280;30041;48.300;16.352;2022-07-10T10:28:34;99971.84;;;23.16;48.89
43312;BME280;30041;48.300;16.352;2022-07-10T10:31:01;99969.50;;;23.08;48.97
43312;BME280;30041;48.300;16.352;2022-07-10T10:35:59;99962.78;;;23.10;48.48
43312;BME280;30041;48.300;16.352;2022-07-10T10:38:37;99966.91;;;23.13;48.67
43312;BME280;30041;48.300;16.352;2022-07-10T10:41:29;99971.84;;;23.16;48.52
43312;BME280;30041;48.300;16.352;2022-07-10T10:49:18;99960.09;;;22.98;46.97
43312;BME280;30041;48.300;16.352;2022-07-10T10:52:18;99965.31;;;23.00;47.71
43312;BME280;30041;48.300;16.352;2022-07-10T10:57:21;99965.28;;;23.12;47.70
43312;BME280;30041;48.300;16.352;2022-07-10T10:59:54;99956.47;;;23.05;47.54
43312;BME280;30041;48.300;16.352;2022-07-10T11:07:56;99955.09;;;23.02;47.75
43312;BME280;30041;48.300;16.352;2022-07-10T11:10:45;99952.97;;;23.04;47.93
43312;BME280;30041;48.300;16.352;2022-07-10T11:13:15;99950.81;;;23.06;47.81
43312;BME280;30041;48.300;16.352;2022-07-10T11:15:46;99957.06;;;23.07;47.85
43312;BME280;30041;48.300;16.352;2022-07-10T11:18:28;99965.41;;;23.05;47.30
43312;BME280;30041;48.300;16.352;2022-07-10T11:20:54;99959.78;;;23.07;47.50
43312;BME280;30041;48.300;16.352;2022-07-10T11:26:07;99957.44;;;22.87;43.25
43312;BME280;30041;48.300;16.352;2022-07-10T11:28:49;99959.56;;;22.85;42.37
43312;BME280;30041;48.300;16.352;2022-07-10T11:31:26;99964.38;;;22.83;42.36
43312;BME280;30041;48.300;16.352;2022-07-10T11:33:54;99966.72;;;22.79;43.63
43312;BME280;30041;48.300;16.352;2022-07-10T11:36:22;99953.81;;;22.81;42.39
43312;BME280;30041;48.300;16.352;2022-07-10T11:38:48;99954.19;;;22.73;42.17
43312;BME280;30041;48.300;16.352;2022-07-10T11:41:20;99955.69;;;22.80;41.95
43312;BME280;30041;48.300;16.352;2022-07-10T11:44:00;99954.88;;;22.68;41.37
43312;BME280;30041;48.300;16.352;2022-07-10T11:46:29;99944.06;;;22.68;42.56
43312;BME280;30041;48.300;16.352;2022-07-10T11:48:55;99941.38;;;22.80;44.04
43312;BME280;30041;48.300;16.352;2022-07-10T11:51:29;99941.38;;;22.80;44.00
43312;BME280;30041;48.300;16.352;2022-07-10T11:54:12;99950.81;;;22.94;44.58
43312;BME280;30041;48.300;16.352;2022-07-10T11:56:40;99940.03;;;22.94;44.99
43312;BME280;30041;48.300;16.352;2022-07-10T11:59:07;99940.97;;;23.00;45.28
43312;BME280;30041;48.300;16.352;2022-07-10T12:01:35;99932.63;;;23.02;45.63
43312;BME280;30041;48.300;16.352;2022-07-10T12:04:06;99928.28;;;23.00;45.97
43312;BME280;30041;48.300;16.352;2022-07-10T12:06:36;99922.97;;;23.06;45.82
43312;BME280;30041;48.300;16.352;2022-07-10T12:09:06;99925.09;;;23.04;45.97
43312;BME280;30041;48.300;16.352;2022-07-10T12:11:33;99915.13;;;23.04;45.95
43312;BME280;30041;48.300;16.352;2022-07-10T12:14:14;99915.59;;;23.01;45.78
43312;BME280;30041;48.300;16.352;2022-07-10T12:16:42;99920.19;;;23.00;45.84
43312;BME280;30041;48.300;16.352;2022-07-10T12:19:10;99911.00;;;23.02;46.16
43312;BME280;30041;48.300;16.352;2022-07-10T12:21:36;99926.16;;;23.03;46.42
43312;BME280;30041;48.300;16.352;2022-07-10T12:24:03;99918.75;;;22.98;46.57
43312;BME280;30041;48.300;16.352;2022-07-10T12:26:38;99929.91;;;23.02;46.60
43312;BME280;30041;48.300;16.352;2022-07-10T12:29:04;99938.47;;;22.98;46.41
43312;BME280;30041;48.300;16.352;2022-07-10T12:31:32;99943.06;;;22.98;46.44
43312;BME280;30041;48.300;16.352;2022-07-10T12:34:00;99939.56;;;22.97;46.33
43312;BME280;30041;48.300;16.352;2022-07-10T12:36:26;99943.31;;;22.96;46.36
43312;BME280;30041;48.300;16.352;2022-07-10T12:38:57;99953.53;;;22.94;46.79
43312;BME280;30041;48.300;16.352;2022-07-10T12:41:22;99953.53;;;22.94;46.69
43312;BME280;30041;48.300;16.352;2022-07-10T12:43:48;99945.44;;;22.94;46.61
43312;BME280;30041;48.300;16.352;2022-07-10T12:46:19;99949.66;;;22.90;46.11
43312;BME280;30041;48.300;16.352;2022-07-10T12:49:04;99949.34;;;22.87;46.50
43312;BME280;30041;48.300;16.352;2022-07-10T12:51:32;99951.19;;;22.86;46.11
43312;BME280;30041;48.300;16.352;2022-07-10T12:53:58;99959.31;;;22.86;45.95
43312;BME280;30041;48.300;16.352;2022-07-10T12:56:29;99966.94;;;22.89;46.28
43312;BME280;30041;48.300;16.352;2022-07-10T12:58:54;99958.63;;;22.91;46.39
43312;BME280;30041;48.300;16.352;2022-07-10T13:01:20;99962.72;;;22.93;45.99
43312;BME280;30041;48.300;16.352;2022-07-10T13:03:46;99955.31;;;22.89;45.96
43312;BME280;30041;48.300;16.352;2022-07-10T13:06:31;99960.81;;;22.94;46.26
43312;BME280;30041;48.300;16.352;2022-07-10T13:08:57;99951.66;;;22.95;46.20
43312;BME280;30041;48.300;16.352;2022-07-10T13:11:23;99964.34;;;22.94;46.01
43312;BME280;30041;48.300;16.352;2022-07-10T13:13:50;99958.63;;;22.91;45.41